Time;durP1;ratioP1;P1;durP2;ratioP2;P2;SDS_P1;SDS_P2;PMS_P1;PMS_P2;Temp;Humidity;BMP_temperature;BMP_pressure;BME280_temperature;BME280_humidity;BME280_pressure;Samples;Min_cycle;Max_cycle;Signal;HPM_P1;HPM_P2
2022/12/06 00:01:50;;;;;;;30.65;13.23;;;;;;;3.53;100.00;101215.66;4867528;29;20234;-74
2022/12/06 00:04:24;;;;;;;14.98;9.88;;;;;;;3.59;100.00;101219.53;4870768;29;20679;-74
2022/12/06 00:06:58;;;;;;;21.67;11.55;;;;;;;3.51;100.00;101217.63;4862172;29;20211;-73
2022/12/06 00:09:33;;;;;;;20.75;10.57;;;;;;;3.43;100.00;101217.53;4881916;29;20239;-75
2022/12/06 00:12:04;;;;;;;19.20;10.60;;;;;;;3.52;100.00;101215.78;4866155;29;20245;-72
2022/12/06 00:14:34;;;;;;;15.48;10.00;;;;;;;3.48;100.00;101209.91;4875453;29;20206;-72
2022/12/06 00:17:05;;;;;;;20.17;10.35;;;;;;;3.38;100.00;101209.94;4878179;29;20198;-79
2022/12/06 00:19:37;;;;;;;15.30;10.27;;;;;;;3.37;100.00;101212.75;4892120;29;20277;-73
2022/12/06 00:22:10;;;;;;;19.52;11.70;;;;;;;3.41;100.00;101212.31;4899567;29;20655;-72
2022/12/06 00:24:41;;;;;;;21.90;10.88;;;;;;;3.33;100.00;101208.69;4896743;29;20218;-73
2022/12/06 00:27:12;;;;;;;16.52;10.05;;;;;;;3.36;100.00;101209.25;4870197;29;20698;-71
2022/12/06 00:29:45;;;;;;;18.23;11.73;;;;;;;3.36;100.00;101214.59;4881835;29;20274;-74
2022/12/06 00:32:15;;;;;;;21.08;11.32;;;;;;;3.43;100.00;101221.06;4863994;29;20219;-74
2022/12/06 00:34:51;;;;;;;22.13;11.68;;;;;;;3.43;100.00;101225.56;4865056;29;20202;-74
2022/12/06 00:37:21;;;;;;;18.88;10.38;;;;;;;3.46;100.00;101214.53;4870786;29;20203;-72
2022/12/06 00:39:52;;;;;;;20.10;11.52;;;;;;;3.57;100.00;101217.03;4869426;29;20194;-73
2022/12/06 00:42:23;;;;;;;22.33;11.77;;;;;;;3.52;100.00;101215.78;4879039;29;20241;-73
2022/12/06 00:44:55;;;;;;;16.50;11.30;;;;;;;3.40;100.00;101213.31;4880339;29;20202;-72
2022/12/06 00:47:27;;;;;;;22.90;12.35;;;;;;;3.40;100.00;101210.63;4864826;29;20195;-71
2022/12/06 00:50:02;;;;;;;17.40;11.27;;;;;;;3.48;100.00;101202.72;4899288;29;20706;-73
2022/12/06 00:52:34;;;;;;;21.05;13.43;;;;;;;3.48;100.00;101207.22;4865498;29;20810;-73
2022/12/06 00:55:06;;;;;;;18.98;10.60;;;;;;;3.42;100.00;101213.16;4880179;29;20206;-75
2022/12/06 00:57:37;;;;;;;18.42;12.05;;;;;;;3.52;100.00;101207.75;4871167;29;20212;-73
2022/12/06 01:00:10;;;;;;;15.45;8.35;;;;;;;3.43;100.00;101209.50;4860116;29;20202;-73
2022/12/06 01:02:45;;;;;;;16.50;11.93;;;;;;;3.41;100.00;101203.44;4885449;29;20218;-72
2022/12/06 01:05:17;;;;;;;15.45;9.05;;;;;;;3.31;100.00;101197.28;4871079;29;20205;-72
2022/12/06 01:07:48;;;;;;;17.48;9.93;;;;;;;3.42;100.00;101197.09;4875339;29;20206;-74
2022/12/06 01:10:19;;;;;;;16.13;11.27;;;;;;;3.41;100.00;101200.78;4869968;29;20257;-71
2022/12/06 01:12:50;;;;;;;16.88;10.90;;;;;;;3.15;100.00;101184.56;4869847;29;20234;-72
2022/12/06 01:15:22;;;;;;;15.65;8.85;;;;;;;3.21;100.00;101183.13;4876897;29;20209;-72
2022/12/06 01:17:54;;;;;;;17.80;11.32;;;;;;;3.23;100.00;101183.84;4867814;29;20567;-70
2022/12/06 01:20:26;;;;;;;21.55;10.80;;;1.60;99.90;;;3.18;100.00;101183.44;4875977;29;20205;-73
2022/12/06 01:22:58;;;;;;;17.30;10.10;;;3.30;99.90;;;3.30;100.00;101187.59;4863285;29;20215;-74
2022/12/06 01:25:29;;;;;;;15.15;9.75;;;3.30;99.90;;;3.31;100.00;101179.41;4888794;29;20570;-75
2022/12/06 01:28:06;;;;;;;18.40;11.20;;;3.30;99.90;;;3.30;100.00;101187.59;4885478;29;20213;-72
2022/12/06 01:30:37;;;;;;;19.80;11.00;;;3.40;99.90;;;3.32;100.00;101188.28;4870524;29;20214;-74
2022/12/06 01:33:08;;;;;;;13.82;10.45;;;3.40;99.90;;;3.20;100.00;101186.78;4886267;29;20241;-74
2022/12/06 01:35:43;;;;;;;20.63;10.77;;;3.30;99.90;;;3.13;100.00;101189.22;4869143;29;20210;-74
2022/12/06 01:38:16;;;;;;;20.40;12.43;;;3.20;99.90;;;3.12;100.00;101190.19;4885869;29;20201;-73
2022/12/06 01:40:50;;;;;;;15.55;11.20;;;3.20;99.90;;;3.16;100.00;101185.41;4861358;29;20187;-75
2022/12/06 01:43:39;;;;;;;16.08;12.10;;;3.20;99.90;;;3.26;100.00;101187.03;4883228;29;20221;-74
2022/12/06 01:46:24;;;;;;;15.00;10.43;;;3.20;99.90;;;3.31;100.00;101190.13;4871473;29;20207;-73
2022/12/06 01:49:10;;;;;;;21.65;11.65;;;3.30;99.90;;;3.23;100.00;101191.84;4882448;29;20313;-73
2022/12/06 01:51:46;;;;;;;16.95;11.52;;;3.30;99.90;;;3.25;100.00;101182.69;4844585;29;20223;-73
2022/12/06 01:54:20;;;;;;;21.67;12.07;;;3.20;99.90;;;3.22;100.00;101180.31;4846051;29;20238;-73
2022/12/06 01:56:52;;;;;;;18.88;12.82;;;3.30;99.90;;;3.27;100.00;101182.53;4885348;29;20195;-75
2022/12/06 01:59:25;;;;;;;23.98;13.55;;;3.30;99.90;;;3.28;100.00;101178.88;4889421;29;20217;-75
2022/12/06 02:01:56;;;;;;;19.38;10.73;;;3.30;99.90;;;3.34;100.00;101183.66;4862388;29;20279;-73
2022/12/06 02:04:29;;;;;;;16.65;10.23;;;3.40;99.90;;;3.29;100.00;101178.72;4868629;29;20211;-74
2022/12/06 02:07:08;;;;;;;19.10;10.75;;;3.40;99.90;;;3.27;100.00;101182.53;4862898;29;20198;-74
2022/12/06 02:09:46;;;;;;;17.88;10.65;;;3.30;99.90;;;3.21;100.00;101185.78;4851618;29;20304;-75
2022/12/06 02:12:21;;;;;;;14.23;11.15;;;3.30;99.90;;;3.31;100.00;101178.56;4865392;29;20295;-74
2022/12/06 02:14:58;;;;;;;16.10;10.63;;;3.40;99.90;;;3.18;100.00;101173.56;4860775;29;20218;-75
2022/12/06 02:17:45;;;;;;;19.92;11.93;;;3.30;99.90;;;3.14;100.00;101166.00;4877252;29;20201;-74
2022/12/06 02:20:29;;;;;;;17.58;11.27;;;3.20;99.90;;;3.05;100.00;101160.53;4870501;29;20201;-74
2022/12/06 02:23:57;;;;;;;15.57;10.80;;;3.20;99.90;;;3.01;100.00;101151.13;4868050;29;20273;-74
2022/12/06 02:26:40;;;;;;;19.40;12.00;;;3.10;99.90;;;3.02;100.00;101152.81;4853778;29;20202;-74
2022/12/06 02:29:56;;;;;;;20.00;12.40;;;3.10;99.90;;;3.00;100.00;101156.63;4863351;29;20263;-75
2022/12/06 02:32:42;;;;;;;18.10;10.82;;;3.10;99.90;;;3.06;100.00;101151.53;4849935;29;20644;-73
2022/12/06 02:35:23;;;;;;;15.55;8.60;;;3.10;99.90;;;3.01;100.00;101151.13;4886687;29;20261;-74
2022/12/06 02:38:07;;;;;;;13.75;8.20;;;3.10;99.90;;;2.95;100.00;101154.38;4868271;29;20234;-74
2022/12/06 02:40:51;;;;;;;12.82;10.27;;;3.10;99.90;;;3.17;100.00;101149.66;4886735;29;20255;-74
2022/12/06 02:43:31;;;;;;;8.95;6.78;;;3.20;99.90;;;3.18;100.00;101148.66;4880841;29;20312;-73
2022/12/06 02:46:06;;;;;;;10.75;7.85;;;3.20;99.90;;;3.24;100.00;101146.25;4868842;29;20254;-73
2022/12/06 02:48:43;;;;;;;13.75;8.68;;;3.30;99.90;;;3.20;100.00;101149.34;4869511;29;20198;-73
2022/12/06 02:51:19;;;;;;;18.15;9.30;;;3.20;99.90;;;3.24;100.00;101156.09;4878902;29;20245;-72
2022/12/06 02:53:54;;;;;;;12.98;9.13;;;3.20;99.90;;;3.11;100.00;101152.91;4870390;29;20296;-72
2022/12/06 02:56:26;;;;;;;13.13;8.10;;;3.20;99.90;;;3.06;100.00;101148.84;4858634;29;20225;-73
2022/12/06 02:59:04;;;;;;;13.20;9.68;;;3.10;99.90;;;3.03;100.00;101143.81;4867994;29;20703;-72
2022/12/06 03:01:41;;;;;;;12.27;8.10;;;3.10;99.90;;;3.12;100.00;101141.22;4861648;29;20275;-73
2022/12/06 03:04:48;;;;;;;15.93;9.10;;;3.10;99.90;;;3.12;100.00;101147.41;4881038;29;20206;-72
2022/12/06 03:07:38;;;;;;;13.73;7.88;;;3.20;99.90;;;3.01;100.00;101139.56;4864978;29;20707;-73
2022/12/06 03:10:38;;;;;;;15.68;9.55;;;3.10;99.90;;;2.98;100.00;101137.22;4873293;29;20233;-73
2022/12/06 03:13:18;;;;;;;16.90;11.30;;;3.10;99.90;;;2.99;100.00;101137.06;4893567;24;20294;-74
2022/12/06 03:15:56;;;;;;;9.60;7.68;;;3.10;99.90;;;2.97;100.00;101133.69;4881327;29;20194;-73
2022/12/06 03:18:32;;;;;;;14.02;9.45;;;3.10;99.90;;;3.01;100.00;101118.19;4881380;29;20740;-74
2022/12/06 03:21:11;;;;;;;11.23;8.35;;;3.10;99.90;;;2.87;100.00;101116.84;4844783;29;20564;-72
2022/12/06 03:23:47;;;;;;;14.05;11.55;;;3.00;99.90;;;2.96;100.00;101115.97;4860566;29;20211;-75
2022/12/06 03:26:27;;;;;;;16.38;9.93;;;3.00;99.90;;;3.11;100.00;101112.78;4865054;29;20201;-75
2022/12/06 03:29:01;;;;;;;16.85;9.93;;;3.10;99.90;;;3.10;100.00;101111.13;4877337;29;20580;-73
2022/12/06 03:31:37;;;;;;;11.60;8.02;;;3.10;99.90;;;3.01;100.00;101107.50;4864200;29;20210;-74
2022/12/06 03:34:15;;;;;;;16.73;8.93;;;3.10;99.90;;;3.01;100.00;101108.34;4896896;29;20252;-74
2022/12/06 03:36:52;;;;;;;15.38;10.25;;;3.10;99.90;;;3.11;100.00;101110.13;4877664;29;20255;-73
2022/12/06 03:39:35;;;;;;;22.30;10.05;;;3.20;99.90;;;3.10;100.00;101108.47;4867405;29;20624;-74
2022/12/06 03:42:08;;;;;;;16.58;10.35;;;3.10;99.90;;;3.15;100.00;101111.53;4863665;29;20203;-73
2022/12/06 03:44:40;;;;;;;16.02;10.15;;;3.20;99.90;;;3.04;100.00;101116.09;4863294;29;20203;-74
2022/12/06 03:47:21;;;;;;;16.00;10.50;;;3.20;99.90;;;3.08;100.00;101113.09;4870372;29;20634;-71
2022/12/06 03:49:58;;;;;;;12.77;8.20;;;3.10;99.90;;;2.94;100.00;101104.59;4869566;29;20305;-74
2022/12/06 03:52:34;;;;;;;14.07;7.88;;;3.10;99.90;;;2.85;100.00;101105.47;4874104;29;20291;-73
2022/12/06 03:55:05;;;;;;;11.38;7.00;;;2.90;99.90;;;2.69;100.00;101102.59;4871601;29;20203;-74
2022/12/06 03:57:35;;;;;;;13.35;9.10;;;2.90;99.90;;;2.82;100.00;101097.75;4868422;29;20213;-74
2022/12/06 04:00:10;;;;;;;14.10;10.48;;;2.90;99.90;;;2.76;100.00;101106.34;4866851;29;20238;-73
2022/12/06 04:02:40;;;;;;;10.10;9.10;;;2.90;99.90;;;2.74;100.00;101104.81;4869115;29;20219;-73
2022/12/06 04:05:10;;;;;;;10.18;7.50;;;2.80;99.90;;;2.63;100.00;101106.69;4867362;29;20199;-74
2022/12/06 04:07:42;;;;;;;11.18;7.50;;;2.70;99.90;;;2.65;100.00;101095.84;4868150;29;20210;-74
2022/12/06 04:10:12;;;;;;;9.20;7.40;;;2.70;99.90;;;2.68;100.00;101100.91;4876633;29;20207;-73
2022/12/06 04:13:01;;;;;;;13.93;7.45;;;2.70;99.90;;;2.70;100.00;101106.94;4880881;29;20239;-74
2022/12/06 04:15:34;;;;;;;12.10;6.60;;;2.70;99.90;;;2.59;100.00;101102.63;4888641;29;20203;-74
2022/12/06 04:18:12;;;;;;;10.85;7.35;;;2.70;99.90;;;2.57;100.00;101095.72;4868715;29;20203;-74
2022/12/06 04:23:38;;;;;;;12.82;9.18;;;2.60;99.90;;;2.47;100.00;101086.91;4875854;29;20229;-73
2022/12/06 04:26:12;;;;;;;11.82;8.43;;;2.60;99.90;;;2.53;100.00;101087.16;4884462;29;20203;-74
2022/12/06 04:39:56;;;;;;;12.00;8.88;;;2.90;99.90;;;2.93;100.00;101060.13;4865369;29;20259;-72
2022/12/06 04:45:16;;;;;;;26.48;9.15;;;2.90;99.90;;;2.68;100.00;101055.47;4863622;29;20195;-72
2022/12/06 04:47:49;;;;;;;14.43;9.80;;;2.80;99.90;;;2.59;100.00;101059.88;4878053;29;20203;-75
2022/12/06 04:50:23;;;;;;;12.70;7.20;;;2.70;99.90;;;2.67;100.00;101051.09;4875543;29;20206;-74
2022/12/06 04:52:53;;;;;;;10.43;8.23;;;2.70;99.90;;;2.48;100.00;101046.69;4882047;29;20227;-73
2022/12/06 04:55:24;;;;;;;14.23;7.20;;;2.60;99.90;;;2.55;100.00;101047.81;4875635;29;20209;-73
2022/12/06 04:57:53;;;;;;;7.20;5.88;;;2.70;99.90;;;2.55;100.00;101049.63;4874988;29;20199;-72
2022/12/06 05:00:23;;;;;;;11.93;7.90;;;2.60;99.90;;;2.69;100.00;101048.28;4865158;29;20196;-73
2022/12/06 05:02:54;;;;;;;13.60;9.05;;;2.70;99.90;;;2.76;100.00;101050.22;4877252;29;20223;-74
2022/12/06 05:05:26;;;;;;;12.68;6.97;;;2.80;99.90;;;2.63;100.00;101049.72;4874677;29;20554;-73
2022/12/06 05:07:59;;;;;;;10.25;6.45;;;2.70;99.90;;;2.55;100.00;101046.94;4876528;29;20523;-74
2022/12/06 05:10:33;;;;;;;10.05;7.70;;;2.70;99.90;;;2.59;100.00;101053.69;4869242;29;20223;-74
2022/12/06 05:13:05;;;;;;;11.55;8.32;;;2.70;99.90;;;2.47;100.00;101046.84;4871209;29;20223;-73
2022/12/06 05:15:35;;;;;;;18.02;8.25;;;2.60;99.90;;;2.44;100.00;101050.63;4871065;29;20266;-72
2022/12/06 05:18:05;;;;;;;12.90;8.20;;;2.50;99.90;;;2.53;100.00;101048.91;4870977;29;20575;-74
2022/12/06 05:20:35;;;;;;;14.32;8.80;;;2.60;99.90;;;2.53;100.00;101054.25;4861386;29;20672;-72
2022/12/06 05:23:08;;;;;;;15.20;8.85;;;2.60;99.90;;;2.62;100.00;101053.38;4888682;29;20704;-72
2022/12/06 05:25:41;;;;;;;10.55;7.90;;;2.60;99.90;;;2.62;100.00;101045.34;4863678;29;20599;-73
2022/12/06 05:28:11;;;;;;;12.35;7.07;;;2.70;99.90;;;2.66;100.00;101044.09;4883502;29;20213;-72
2022/12/06 05:30:41;;;;;;;10.00;8.27;;;2.70;99.90;;;2.69;100.00;101038.44;4867930;29;20207;-74
2022/12/06 05:33:11;;;;;;;11.57;8.93;;;2.70;99.90;;;2.83;100.00;101042.47;4876886;29;20222;-74
2022/12/06 05:35:41;;;;;;;12.13;7.90;;;2.80;99.90;;;2.74;100.00;101038.84;4866669;29;20661;-75
2022/12/06 05:38:12;;;;;;;12.40;7.07;;;2.80;99.90;;;2.73;100.00;101037.16;4887862;29;20227;-75
2022/12/06 05:40:45;;;;;;;14.48;7.32;;;2.80;99.90;;;2.74;100.00;101035.34;4883270;29;20233;-74
2022/12/06 05:43:15;;;;;;;11.73;8.20;;;2.80;99.90;;;2.64;100.00;101035.38;4875419;29;20222;-75
2022/12/06 05:45:46;;;;;;;12.05;8.48;;;2.70;99.90;;;2.73;100.00;101037.16;4861393;29;20560;-73
2022/12/06 05:48:15;;;;;;;12.43;8.23;;;2.70;99.90;;;2.71;100.00;101030.31;4863947;29;20247;-73
2022/12/06 05:50:47;;;;;;;8.27;6.35;;;2.70;99.90;;;2.78;100.00;101031.38;4867562;29;20203;-73
2022/12/06 05:53:44;;;;;;;9.98;6.45;;;2.80;99.90;;;2.67;100.00;101029.72;4856510;29;20231;-72
2022/12/06 05:56:15;;;;;;;9.77;7.28;;;2.80;99.90;;;2.65;100.00;101034.41;4860979;29;20196;-75
2022/12/06 05:58:47;;;;;;;11.02;6.70;;;2.70;99.90;;;2.74;100.00;101030.84;4861589;29;20211;-74
2022/12/06 06:01:16;;;;;;;12.00;7.47;;;2.80;99.90;;;2.69;100.00;101033.09;4860690;29;20310;-73
2022/12/06 06:03:47;;;;;;;8.13;5.60;;;2.80;99.90;;;2.68;100.00;101034.09;4864587;29;20261;-73
2022/12/06 06:06:17;;;;;;;9.07;5.93;;;2.80;99.90;;;2.59;100.00;101037.66;4869544;29;20195;-74
2022/12/06 06:08:47;;;;;;;8.57;4.78;;;2.70;99.90;;;2.58;100.00;101042.16;4866931;29;20739;-74
2022/12/06 06:11:22;;;;;;;8.30;4.63;;;2.70;99.90;;;2.52;100.00;101039.22;4860782;29;20248;-75
2022/12/06 06:13:54;;;;;;;12.10;6.40;;;2.60;99.90;;;2.60;100.00;101036.66;4872389;29;20266;-74
2022/12/06 06:16:24;;;;;;;7.15;5.35;;;2.70;99.90;;;2.65;100.00;101041.56;4878265;29;20206;-73
2022/12/06 06:18:54;;;;;;;9.82;6.30;;;2.70;99.90;;;2.56;100.00;101044.16;4854106;29;20268;-74
2022/12/06 06:21:24;;;;;;;7.57;6.28;;;2.60;99.90;;;2.47;100.00;101038.84;4860776;29;20202;-74
2022/12/06 06:23:56;;;;;;;11.65;5.20;;;2.60;99.90;;;2.37;100.00;101032.69;4864223;29;20236;-74
2022/12/06 06:26:28;;;;;;;10.38;6.38;;;2.50;99.90;;;2.62;100.00;101032.84;4863795;29;20744;-74
2022/12/06 06:29:02;;;;;;;6.00;4.90;;;2.60;99.90;;;2.59;100.00;101021.63;4862423;29;20756;-72
2022/12/06 06:31:32;;;;;;;8.75;6.50;;;2.60;99.90;;;2.56;100.00;101038.81;4890842;29;20211;-74
2022/12/06 06:34:02;;;;;;;10.52;6.40;;;2.60;99.90;;;2.58;100.00;101043.97;4872464;29;20214;-71
2022/12/06 06:36:32;;;;;;;11.15;6.93;;;2.60;99.90;;;2.61;100.00;101044.50;4869062;29;20264;-73
2022/12/06 06:39:02;;;;;;;11.82;8.60;;;2.60;99.90;;;2.66;100.00;101049.44;4880288;29;20205;-74
2022/12/06 06:41:33;;;;;;;10.45;6.15;;;2.70;99.90;;;2.68;100.00;101050.13;4880003;29;20203;-72
2022/12/06 06:44:03;;;;;;;10.57;6.47;;;2.70;99.90;;;2.65;100.00;101047.75;4878124;29;20288;-74
2022/12/06 06:46:33;;;;;;;7.40;5.30;;;2.70;99.90;;;2.60;100.00;101045.53;4864717;29;20210;-73
2022/12/06 06:49:04;;;;;;;8.35;6.35;;;2.70;99.90;;;2.59;100.00;101049.19;4864834;29;20203;-74
2022/12/06 06:51:34;;;;;;;11.13;7.60;;;2.70;99.90;;;2.85;100.00;101038.66;4863751;29;20204;-71
2022/12/06 06:54:04;;;;;;;19.63;8.15;;;2.80;99.90;;;2.81;100.00;101041.78;4867656;29;20763;-73
2022/12/06 06:56:37;;;;;;;7.35;5.07;;;2.80;99.90;;;2.78;100.00;101042.91;4881345;29;20203;-74
2022/12/06 06:59:11;;;;;;;7.70;6.18;;;2.80;99.90;;;2.78;100.00;101042.91;4867467;29;20206;-73
2022/12/06 07:01:41;;;;;;;9.35;6.35;;;2.90;99.90;;;2.75;100.00;101042.38;4866891;29;20192;-72
2022/12/06 07:04:12;;;;;;;11.85;5.45;;;2.80;99.90;;;2.64;100.00;101051.41;4871600;29;20287;-74
2022/12/06 07:06:43;;;;;;;10.52;5.45;;;2.70;99.90;;;2.82;100.00;101049.63;4874887;29;20196;-74
2022/12/06 07:09:13;;;;;;;10.75;6.38;;;2.80;99.90;;;2.83;100.00;101045.97;4878951;29;20196;-73
2022/12/06 07:11:44;;;;;;;11.63;6.03;;;2.90;99.90;;;2.67;100.00;101051.09;4871874;29;20259;-73
2022/12/06 07:14:13;;;;;;;10.45;5.72;;;2.80;99.90;;;2.76;100.00;101046.72;4882598;29;20228;-74
2022/12/06 07:16:43;;;;;;;11.18;7.47;;;2.80;99.90;;;2.72;100.00;101056.00;4878685;29;20195;-73
2022/12/06 07:19:12;;;;;;;7.85;6.07;;;2.80;99.90;;;2.66;100.00;101049.44;4881871;29;20191;-73
2022/12/06 07:21:42;;;;;;;8.52;6.25;;;2.70;99.90;;;2.77;100.00;101046.56;4875698;29;20196;-73
2022/12/06 07:24:12;;;;;;;7.45;6.32;;;2.80;99.90;;;2.74;100.00;101044.19;4890880;29;20207;-74
2022/12/06 07:26:44;;;;;;;7.90;6.22;;;2.80;99.90;;;2.78;100.00;101042.91;4880702;29;20305;-75
2022/12/06 07:29:13;;;;;;;10.98;7.32;;;2.80;99.90;;;2.70;100.00;101049.97;4864603;29;20189;-74
2022/12/06 07:31:43;;;;;;;9.82;5.50;;;2.70;99.90;;;2.81;100.00;101053.28;4889090;29;20207;-74
2022/12/06 07:34:12;;;;;;;9.82;6.95;;;2.80;99.90;;;2.78;100.00;101050.06;4864523;29;20230;-73
2022/12/06 07:36:44;;;;;;;11.00;7.13;;;2.80;99.90;;;2.82;100.00;101046.97;4874928;29;20206;-74
2022/12/06 07:39:13;;;;;;;14.43;7.07;;;2.80;99.90;;;2.67;100.00;101045.75;4875993;29;20203;-75
2022/12/06 07:45:06;;;;;;;7.07;5.90;;;2.80;99.90;;;2.79;100.00;101051.75;4873302;29;20203;-73
2022/12/06 07:47:36;;;;;;;7.60;5.60;;;2.80;99.90;;;2.71;100.00;101063.19;4868742;29;20211;-73
2022/12/06 07:50:10;;;;;;;7.75;5.78;;;2.70;99.90;;;2.87;100.00;101052.69;4882032;29;20471;-74
2022/12/06 07:52:47;;;;;;;12.10;6.30;;;2.80;99.90;;;2.77;100.00;101065.25;4885362;29;20682;-74
2022/12/06 07:55:20;;;;;;;5.97;5.13;;;2.80;99.90;;;2.93;100.00;101068.16;4879186;29;20204;-73
2022/12/06 07:57:51;;;;;;;5.60;4.82;;;2.90;99.90;;;2.73;100.00;101055.03;4864028;29;20283;-74
2022/12/06 08:00:22;;;;;;;11.38;6.88;;;2.80;99.90;;;2.76;100.00;101050.22;4863323;29;20302;-74
2022/12/06 08:02:52;;;;;;;9.68;7.45;;;2.80;99.90;;;2.78;100.00;101048.25;4864466;29;20241;-72
2022/12/06 08:05:22;;;;;;;10.02;5.82;;;2.80;99.90;;;2.72;100.00;101046.16;4869908;29;20229;-72
2022/12/06 08:07:52;;;;;;;13.60;5.82;;;2.80;99.90;;;2.78;100.00;101052.75;4875620;29;20279;-74
2022/12/06 08:10:23;;;;;;;9.70;6.90;;;2.80;99.90;;;2.74;100.00;101049.53;4863386;29;20199;-74
2022/12/06 08:12:54;;;;;;;7.90;6.75;;;2.80;99.90;;;2.72;100.00;101048.84;4863202;29;20227;-74
2022/12/06 08:15:24;;;;;;;9.63;6.47;;;2.70;99.90;;;2.79;100.00;101049.94;4863019;29;20206;-72
2022/12/06 08:17:56;;;;;;;9.73;6.97;;;2.80;99.90;;;2.79;100.00;101051.75;4862709;29;20223;-72
2022/12/06 08:20:26;;;;;;;11.07;7.80;;;2.90;99.90;;;2.86;100.00;101053.69;4862679;29;20214;-73
2022/12/06 08:22:55;;;;;;;9.75;6.20;;;2.90;99.90;;;2.98;100.00;101054.34;4874288;29;20231;-74
2022/12/06 08:25:25;;;;;;;10.63;6.50;;;2.90;99.90;;;2.84;100.00;101052.16;4869397;29;20625;-74
2022/12/06 08:27:56;;;;;;;12.20;7.63;;;3.00;99.90;;;2.81;100.00;101050.63;4868435;29;20593;-73
2022/12/06 08:30:26;;;;;;;12.68;8.52;;;2.90;99.90;;;2.92;100.00;101049.56;4872473;29;20210;-73
2022/12/06 08:32:57;;;;;;;14.30;10.85;;;2.90;99.90;;;2.86;100.00;101056.34;4852783;29;20234;-72
2022/12/06 08:35:28;;;;;;;11.23;8.77;;;2.90;99.90;;;2.90;100.00;101056.94;4873795;29;20222;-74
2022/12/06 08:37:58;;;;;;;10.07;7.75;;;2.90;99.90;;;3.00;100.00;101053.19;4877687;29;20199;-74
2022/12/06 08:40:29;;;;;;;9.02;7.05;;;3.00;99.90;;;3.00;100.00;101055.84;4867706;29;20202;-73
2022/12/06 08:43:00;;;;;;;8.73;6.28;;;3.00;99.90;;;3.06;100.00;101057.94;4871744;29;20224;-74
2022/12/06 08:45:30;;;;;;;11.30;5.13;;;3.10;99.90;;;3.00;99.79;101055.84;4871545;29;20200;-72
2022/12/06 08:48:01;;;;;;;7.95;6.18;;;3.00;99.90;;;3.13;100.00;101057.34;4884411;29;20214;-73
2022/12/06 08:50:30;;;;;;;5.80;4.63;;;3.10;99.90;;;3.02;100.00;101053.88;4872752;29;20214;-73
2022/12/06 08:53:00;;;;;;;5.40;4.88;;;3.10;99.90;;;3.02;100.00;101055.72;4878458;29;20729;-73
2022/12/06 08:55:29;;;;;;;9.63;5.85;;;3.10;99.90;;;3.12;100.00;101055.66;4879969;29;20586;-74
2022/12/06 08:58:01;;;;;;;5.90;5.07;;;3.10;99.90;;;3.18;100.00;101053.25;4880553;29;20287;-72
2022/12/06 09:00:30;;;;;;;8.95;5.72;;;3.20;99.90;;;2.96;99.86;101057.16;4862663;29;20219;-74
2022/12/06 09:03:00;;;;;;;5.78;4.97;;;3.10;99.90;;;3.00;100.00;101055.84;4874719;29;20224;-73
2022/12/06 09:05:29;;;;;;;5.50;4.40;;;3.10;99.90;;;3.06;99.44;101057.94;4880332;29;20200;-72
2022/12/06 09:07:59;;;;;;;7.07;4.55;;;3.10;99.90;;;3.04;99.06;101051.06;4862579;29;20700;-70
2022/12/06 09:10:28;;;;;;;8.20;4.10;;;3.10;99.90;;;3.07;100.00;101048.09;4864339;29;20203;-73
2022/12/06 09:13:03;;;;;;;8.05;4.70;;;3.10;99.90;;;3.09;100.00;101055.97;4962547;23;20242;-74
2022/12/06 09:15:35;;;;;;;10.20;6.70;;;3.10;99.90;;;3.19;100.00;101056.75;4849201;29;20537;-74
2022/12/06 09:18:08;;;;;;;8.85;4.75;;;3.10;99.90;;;3.24;99.47;101047.28;4867706;29;20532;-75
2022/12/06 09:20:44;;;;;;;9.30;6.65;;;3.20;99.90;;;3.26;99.12;101052.47;4849475;29;20198;-75
2022/12/06 09:23:20;;;;;;;7.07;4.65;;;3.20;99.90;;;3.34;98.37;101047.22;4851840;29;20302;-73
2022/12/06 09:25:54;;;;;;;6.95;5.57;;;3.30;99.90;;;3.16;98.23;101049.00;4850293;29;20211;-75
2022/12/06 09:28:27;;;;;;;6.93;4.38;;;3.20;99.90;;;3.13;98.99;101049.31;4826175;29;20264;-75
2022/12/06 09:30:58;;;;;;;7.15;4.78;;;3.10;99.90;;;3.15;98.15;101037.47;4838972;29;20199;-74
2022/12/06 09:33:34;;;;;;;12.00;5.28;;;3.20;99.90;;;3.20;98.74;101042.38;4845651;29;20219;-74
2022/12/06 09:36:17;;;;;;;7.43;5.60;;;3.20;99.90;;;3.23;98.19;101036.75;4861165;29;20187;-74
2022/12/06 09:38:56;;;;;;;6.50;5.55;;;3.20;99.90;;;3.31;98.52;101044.84;4862604;29;20680;-74
2022/12/06 09:42:16;;;;;;;7.03;4.30;;;3.30;99.90;;;3.27;97.92;101032.75;4865146;29;20176;-74
2022/12/06 09:45:22;;;;;;;8.07;5.15;;;3.30;99.90;;;3.33;97.98;101037.50;4862738;29;20207;-74
2022/12/06 09:48:30;;;;;;;6.63;4.82;;;3.30;99.90;;;3.36;97.71;101037.19;4840122;29;20237;-74
2022/12/06 09:51:18;;;;;;;7.50;4.57;;;3.30;99.90;;;3.22;96.91;101027.88;4849224;29;20280;-74
2022/12/06 09:54:17;;;;;;;5.22;4.00;;;3.30;99.90;;;3.16;98.57;101031.13;4853272;29;20231;-74
2022/12/06 09:56:57;;;;;;;4.57;3.67;;;3.20;99.90;;;3.02;98.99;101026.31;4828530;29;20181;-74
2022/12/06 09:59:41;;;;;;;9.27;4.40;;;3.10;99.90;;;2.98;98.64;101023.09;4844547;29;20181;-74
2022/12/06 10:02:38;;;;;;;4.85;3.80;;;3.10;99.90;;;2.94;99.17;101027.06;4855870;29;20207;-73
2022/12/06 10:05:32;;;;;;;4.80;4.25;;;3.00;99.90;;;3.03;99.20;101026.16;4854272;29;20249;-75
2022/12/06 10:08:17;;;;;;;9.23;5.30;;;3.10;99.90;;;3.00;99.13;101026.44;4844495;29;20192;-75
2022/12/06 10:10:57;;;;;;;9.93;5.32;;;3.00;99.90;;;3.01;99.26;101016.59;4827894;29;20201;-73
2022/12/06 10:14:01;;;;;;;5.28;4.25;;;3.00;99.90;;;2.95;98.55;101014.53;4854143;29;20239;-75
2022/12/06 10:16:46;;;;;;;6.47;5.38;;;3.10;99.90;;;2.94;99.71;101019.06;4863211;29;20203;-75
2022/12/06 10:19:42;;;;;;;7.60;5.07;;;3.00;99.90;;;2.94;99.71;101011.03;4860333;29;20200;-73
2022/12/06 10:22:28;;;;;;;9.00;5.32;;;3.00;99.90;;;3.10;99.86;101009.53;4844695;29;20188;-74
2022/12/06 10:25:08;;;;;;;4.18;3.88;;;3.00;99.90;;;3.26;98.66;101004.31;4844686;29;20680;-76
2022/12/06 10:27:44;;;;;;;8.73;4.88;;;3.20;99.90;;;3.21;98.78;101001.25;4853171;29;20200;-74
2022/12/06 10:30:16;;;;;;;9.90;6.43;;;3.20;99.90;;;3.41;98.56;101008.16;4844056;29;20223;-75
2022/12/06 10:32:53;;;;;;;9.32;5.10;;;3.30;99.90;;;3.31;97.82;101007.38;4843857;29;20215;-74
2022/12/06 10:35:40;;;;;;;5.43;4.28;;;3.40;99.90;;;3.26;98.11;101002.50;4851935;29;20216;-75
2022/12/06 10:39:03;;;;;;;5.90;4.13;;;3.30;99.90;;;3.20;98.72;100999.56;4827855;29;20730;-74
2022/12/06 10:41:43;;;;;;;8.70;5.47;;;3.30;99.90;;;3.40;98.05;101001.13;4843633;29;20196;-75
2022/12/06 10:44:25;;;;;;;6.70;4.13;;;3.40;99.90;;;3.24;97.89;101000.97;4844599;29;20216;-74
2022/12/06 10:47:04;;;;;;;6.85;4.47;;;3.30;99.90;;;2.96;98.61;101000.16;4848611;29;20191;-73
2022/12/06 10:49:51;;;;;;;7.03;4.60;;;3.10;99.90;;;3.11;99.37;100989.78;4862240;29;20178;-74
2022/12/06 10:52:32;;;;;;;6.78;5.05;;;3.20;99.90;;;3.25;98.84;100990.09;4863601;29;20327;-75
2022/12/06 10:55:22;;;;;;;7.00;4.72;;;3.20;99.90;;;3.69;98.14;100995.50;4846248;29;20253;-74
2022/12/06 10:58:15;;;;;;;8.68;6.03;;;3.50;99.90;;;3.63;96.89;100986.25;4845296;29;20594;-74
2022/12/06 11:00:55;;;;;;;6.25;5.10;;;3.50;99.90;;;3.72;96.19;100982.69;4851233;29;20670;-74
2022/12/06 11:03:32;;;;;;;6.25;5.13;;;3.60;99.90;;;3.74;96.38;100978.00;4828023;29;20223;-73
2022/12/06 11:06:09;;;;;;;10.85;5.22;;;3.60;99.90;;;3.66;96.02;100980.63;4844121;29;20605;-75
2022/12/06 11:08:46;;;;;;;9.10;5.25;;;3.70;99.90;;;3.73;95.53;100980.81;4844941;29;20207;-74
2022/12/06 11:11:23;;;;;;;9.73;5.40;;;3.70;99.90;;;3.68;96.40;100972.44;4830357;29;20199;-75
2022/12/06 11:14:01;;;;;;;11.85;5.30;;;3.70;99.90;;;3.70;96.00;100973.94;4832440;29;20334;-75
2022/12/06 11:16:38;;;;;;;9.85;5.88;;;3.70;99.90;;;3.78;96.40;100974.00;4859109;29;20195;-74
2022/12/06 11:19:23;;;;;;;8.85;5.95;;;3.70;99.90;;;3.85;96.07;100960.84;4864967;29;20190;-75